General Aviation Weather

Text Reports

Enter one or more of the following location identifiers separated by a space:

Zip Code, Four-Character ICAO or Three-Character IATA airport codes.

METAR - Aviation Routine Weather Report
KCOQ - Cloquet, Minnesota
Updated at 3:35 PM GMT on July 28, 2015 (10:35 AM CDT):
METAR KCOQ 281535Z AUTO 19013KT 10SM CLR 24/20 A2975 RMK AO2
TAF - Terminal Area Forecast
KCOQ - Cloquet, Minnesota
Updated at 3:35 PM GMT on July 28, 2015 (10:35 AM CDT):
No TAF is currently available for this location.
Decoded:
No decoded TAF is available.
PIREP - Pilot Weather Report
KCOQ - Cloquet, Minnesota
Updated at 3:35 PM GMT on July 28, 2015 (10:35 AM CDT):
No PIREP is currently available for this location.
AIRMET - Airmens Meteorological Information
KCOQ - Cloquet, Minnesota
Updated at 3:35 PM GMT on July 28, 2015 (10:35 AM CDT):
No AIRMET is currently available for this location.
SIGMET - Significant Meteorological Information
KCOQ - Cloquet, Minnesota
Updated at 3:35 PM GMT on July 28, 2015 (10:35 AM CDT):
No SIGMET is currently available for this location.
NOTAM - Notice to Airmen
KCOQ - Cloquet, Minnesota
Updated at 3:35 PM GMT on July 28, 2015 (10:35 AM CDT):
No NOTAM is currently available for this location.
Forecast Area
KCOQ - Cloquet, Minnesota
Updated at 3:35 PM GMT on July 28, 2015 (10:35 AM CDT):
No NOTAM is currently available for this location.
Aviation Weather Maps